Time;durP1;ratioP1;P1;durP2;ratioP2;P2;SDS_P1;SDS_P2;PMS_P1;PMS_P2;Temp;Humidity;BMP_temperature;BMP_pressure;BME280_temperature;BME280_humidity;BME280_pressure;Samples;Min_cycle;Max_cycle;Signal;HPM_P1;HPM_P2
2023/02/16 00:00:36;;;;;;;;;47.25;37.00;;;;;2.76;64.94;102227.97;146608;590;45032;-71
2023/02/16 00:03:43;;;;;;;;;53.50;42.25;;;;;4.67;66.03;102569.53;146604;571;46016;-70
2023/02/16 00:06:55;;;;;;;;;64.50;49.25;;;;;4.64;66.29;102579.50;146608;601;45021;-71
2023/02/16 00:10:05;;;;;;;;;;;;;;;;;;;;;
2023/02/16 00:16:36;;;;;;;;;65.75;51.75;;;;;4.52;66.70;102566.31;146604;734;46913;-71
2023/02/16 00:19:42;;;;;;;;;59.25;47.00;;;;;4.47;66.31;102564.00;146606;721;46012;-72
2023/02/16 00:22:48;;;;;;;;;57.00;44.00;;;;;4.44;66.65;102556.88;146599;645;46915;-71
2023/02/16 00:26:05;;;;;;;;;56.75;44.25;;;;;2.46;66.28;102219.56;146604;588;46020;-71
2023/02/16 00:29:04;;;;;;;;;55.25;43.75;;;;;4.30;67.33;102562.19;146607;573;46012;-72
2023/02/16 00:32:09;;;;;;;;;58.25;45.25;;;;;4.20;68.37;102560.31;146607;725;46020;-71
2023/02/16 00:35:17;;;;;;;;;51.75;42.00;;;;;4.06;68.36;102555.41;146603;573;46017;-71
2023/02/16 00:38:15;;;;;;;;;47.50;37.25;;;;;4.01;68.16;102556.56;146607;569;46010;-71
2023/02/16 00:45:18;;;;;;;;;52.50;38.50;;;;;2.10;68.96;102222.53;146605;615;46021;-76
2023/02/16 00:48:18;;;;;;;;;40.25;33.00;;;;;3.89;69.20;102551.97;146606;586;46014;-75
2023/02/16 00:51:24;;;;;;;;;38.25;32.00;;;;;3.86;69.74;102555.81;146603;621;46021;-72
2023/02/16 00:54:19;;;;;;;;;40.50;31.75;;;;;3.83;69.90;102547.78;146603;685;46016;-73
2023/02/16 00:57:21;;;;;;;;;43.25;35.00;;;;;3.80;69.84;102556.09;146604;595;46020;-72
2023/02/16 01:00:29;;;;;;;;;45.50;35.75;;;;;3.75;70.00;102551.22;146604;584;46016;-71
2023/02/16 01:03:25;;;;;;;;;42.75;33.75;;;;;3.73;70.28;102555.25;146604;624;46020;-70
2023/02/16 01:12:47;;;;;;;;;35.00;29.75;;;;;3.66;70.26;102546.00;146602;626;47914;-72
2023/02/16 01:15:43;;;;;;;;;39.75;32.50;;;;;3.63;70.36;102546.56;146604;603;46010;-70
2023/02/16 01:18:47;;;;;;;;;37.75;29.75;;;;;3.62;70.59;102542.19;146604;592;46012;-70
2023/02/16 01:21:49;;;;;;;;;34.25;30.00;;;;;3.57;70.21;102540.78;146604;658;46020;-71
2023/02/16 01:24:41;;;;;;;;;32.00;28.25;;;;;3.53;70.65;102540.28;146605;579;46028;-71
2023/02/16 01:28:05;;;;;;;;;30.00;28.25;;;;;1.63;70.89;102202.91;146609;573;46010;-72
2023/02/16 01:31:04;;;;;;;;;35.00;29.75;;;;;3.53;72.26;102542.88;146604;599;46016;-72
2023/02/16 01:34:11;;;;;;;;;;;;;;;;;;;;;
2023/02/16 01:37:22;;;;;;;;;31.75;26.50;;;;;3.48;72.61;102533.00;146603;593;46016;-72
2023/02/16 01:40:46;;;;;;;;;28.75;23.25;;;;;0.99;70.88;102088.44;146607;632;46012;-72
2023/02/16 01:43:54;;;;;;;;;28.00;24.75;;;;;3.52;73.01;102525.63;146606;585;46012;-72
2023/02/16 01:47:14;;;;;;;;;31.75;24.75;;;;;3.58;72.90;102518.59;146606;566;46010;-72
2023/02/16 01:50:43;;;;;;;;;41.75;31.75;;;;;3.63;72.40;102523.47;146606;706;46014;-71
2023/02/16 01:54:10;;;;;;;;;33.50;28.00;;;;;3.70;72.51;102519.91;146602;615;46020;-71
2023/02/16 01:57:33;;;;;;;;;34.75;30.00;;;;;3.79;71.11;102526.03;146603;688;46915;-71
2023/02/16 02:01:20;;;;;;;;;39.25;33.75;;;;;3.88;70.31;102529.59;146607;563;46009;-73
2023/02/16 02:08:06;;;;;;;;;41.25;32.75;;;;;4.03;70.59;102517.47;146607;596;46012;-71
2023/02/16 02:11:36;;;;;;;;;42.50;34.00;;;;;2.17;68.80;102188.28;146605;601;46016;-71
2023/02/16 02:14:50;;;;;;;;;43.00;36.00;;;;;3.97;68.64;102521.97;146613;579;46020;-70
2023/02/16 02:17:52;;;;;;;;;42.50;35.75;;;;;3.96;69.59;102522.72;146610;577;46016;-71
2023/02/16 02:25:38;;;;;;;;;44.00;35.50;;;;;3.85;67.55;102515.53;146612;592;46012;-68
2023/02/16 02:28:57;;;;;;;;;54.50;44.00;;;;;3.76;69.28;102519.66;146609;590;46011;-69
2023/02/16 02:32:35;;;;;;;;;51.50;40.25;;;;;1.83;69.13;102190.63;146610;652;46016;-67
2023/02/16 02:36:15;;;;;;;;;49.00;39.75;;;;;3.61;68.72;102513.78;146612;582;46021;-68
2023/02/16 02:39:57;;;;;;;;;47.50;37.00;;;;;3.52;69.56;102516.31;146607;582;46036;-70
2023/02/16 02:43:36;;;;;;;;;50.75;39.50;;;;;2.25;69.27;102324.03;146615;709;46010;-69
2023/02/16 02:46:41;;;;;;;;;52.25;41.75;;;;;3.20;70.06;102521.37;146612;620;46012;-70
2023/02/16 02:50:30;;;;;;;;;51.50;41.75;;;;;1.55;69.87;102236.94;146613;588;46020;-73
2023/02/16 02:53:32;;;;;;;;;50.75;40.00;;;;;3.09;70.44;102513.28;146609;584;46016;-73
2023/02/16 03:03:26;;;;;;;;;55.00;42.25;;;;;2.89;73.66;102521.34;146612;571;46020;-71
2023/02/16 03:06:38;;;;;;;;;43.25;35.00;;;;;2.86;73.70;102515.88;146611;573;46016;-71
2023/02/16 03:09:35;;;;;;;;;47.00;36.25;;;;;2.83;74.50;102520.66;146614;673;46010;-71
2023/02/16 03:12:45;;;;;;;;;46.75;36.50;;;;;2.78;74.64;102518.50;146601;577;47914;-70
2023/02/16 03:16:14;;;;;;;;;;;;;;;;;;;;;
2023/02/16 03:29:39;;;;;;;;;48.25;34.50;;;;;2.83;74.31;102524.13;146605;579;46020;-70
2023/02/16 03:32:50;;;;;;;;;37.50;30.75;;;;;2.86;75.31;102514.22;146603;597;46012;-70
2023/02/16 03:36:04;;;;;;;;;34.00;30.50;;;;;2.88;74.71;102520.44;146606;563;46010;-70
2023/02/16 03:39:10;;;;;;;;;;;;;;;;;;;;;
2023/02/16 03:42:27;;;;;;;;;37.25;29.25;;;;;2.88;73.48;102516.97;146605;617;46021;-70
2023/02/16 03:45:24;;;;;;;;;38.00;32.50;;;;;2.92;73.63;102514.00;146602;645;46016;-70
2023/02/16 03:48:50;;;;;;;;;44.75;33.00;;;;;1.84;71.76;102322.91;146606;649;46020;-70
2023/02/16 03:51:47;;;;;;;;;41.50;32.00;;;;;2.87;72.86;102512.59;146604;569;46014;-71
2023/02/16 03:55:08;;;;;;;;;44.25;35.00;;;;;0.89;71.57;102173.34;146607;566;46010;-73
2023/02/16 03:58:21;;;;;;;;;37.75;33.75;;;;;1.53;71.00;102292.09;146604;595;46016;-70
2023/02/16 04:01:18;;;;;;;;;35.00;32.75;;;;;2.82;72.40;102527.44;146608;569;46012;-71
2023/02/16 04:04:31;;;;;;;;;33.25;30.25;;;;;2.75;72.33;102533.53;146606;610;46012;-70
2023/02/16 04:07:47;;;;;;;;;40.00;34.50;;;;;2.64;71.72;102539.09;146599;672;46020;-72
2023/02/16 04:10:56;;;;;;;;;49.75;40.50;;;;;0.58;72.05;102190.28;146605;573;46017;-73
2023/02/16 04:14:03;;;;;;;;;48.25;37.25;;;;;2.48;72.82;102553.50;146607;587;46020;-72
2023/02/16 04:17:09;;;;;;;;;53.50;39.50;;;;;2.42;73.73;102547.69;146603;574;46016;-72
2023/02/16 04:20:22;;;;;;;;;49.75;38.75;;;;;2.36;73.96;102542.78;146605;665;46010;-70
2023/02/16 04:23:23;;;;;;;;;52.75;42.00;;;;;2.33;73.57;102533.84;146604;599;46016;-71
2023/02/16 04:26:23;;;;;;;;;52.75;40.75;;;;;2.34;75.13;102528.91;146607;610;46010;-72
2023/02/16 04:29:31;;;;;;;;;40.75;33.00;;;;;2.37;73.68;102530.88;146604;578;46014;-73
2023/02/16 04:32:33;;;;;;;;;47.50;36.75;;;;;2.40;73.29;102533.78;146606;585;46010;-70
2023/02/16 04:35:33;;;;;;;;;39.50;33.25;;;;;1.67;72.95;102412.16;146606;613;46012;-70
2023/02/16 04:38:32;;;;;;;;;48.50;37.00;;;;;2.54;73.33;102533.69;146604;574;46020;-72
2023/02/16 04:41:26;;;;;;;;;53.00;41.75;;;;;1.73;72.69;102392.41;146605;589;46014;-70
2023/02/16 04:44:21;;;;;;;;;45.25;35.75;;;;;2.48;73.10;102531.34;146606;652;46012;-69
2023/02/16 04:47:34;;;;;;;;;;;;;;;;;;;;;
2023/02/16 04:50:46;;;;;;;;;;;;;;;;;;;;;
2023/02/16 04:53:46;;;;;;;;;36.75;32.50;;;;;2.37;72.43;102552.31;146602;714;46917;-72
2023/02/16 04:56:41;;;;;;;;;43.00;33.75;;;;;2.33;72.59;102545.00;146606;600;46021;-72
2023/02/16 04:59:47;;;;;;;;;35.25;29.50;;;;;0.28;72.68;102190.25;146603;576;47012;-71
2023/02/16 05:02:49;;;;;;;;;35.50;30.75;;;;;2.26;73.95;102548.50;146608;571;46011;-70
2023/02/16 05:05:44;;;;;;;;;46.00;35.75;;;;;2.24;74.38;102539.78;146603;622;46017;-70
2023/02/16 05:08:58;;;;;;;;;40.00;30.25;;;;;2.23;75.04;102540.47;146606;715;46012;-71
2023/02/16 05:15:39;;;;;;;;;36.50;31.50;;;;;2.24;74.19;102546.50;146606;648;46010;-72
2023/02/16 05:19:13;;;;;;;;;38.75;32.25;;;;;0.26;74.86;102185.69;146603;673;46016;-69
2023/02/16 05:22:20;;;;;;;;;34.50;29.25;;;;;2.34;73.85;102545.88;146604;656;46020;-70
2023/02/16 05:25:32;;;;;;;;;35.75;30.25;;;;;2.39;73.94;102545.69;146602;642;46017;-70
2023/02/16 05:28:28;;;;;;;;;36.50;32.50;;;;;1.48;74.80;102386.16;146607;588;46010;-70
2023/02/16 05:31:38;;;;;;;;;27.50;24.75;;;;;2.39;73.66;102555.00;146606;631;45016;-70
2023/02/16 05:34:43;;;;;;;;;;;;;;;;;;;;;
2023/02/16 05:37:53;;;;;;;;;47.75;35.25;;;;;2.37;75.15;102577.91;146603;577;46016;-70
2023/02/16 05:40:47;;;;;;;;;42.00;32.75;;;;;2.38;75.85;102576.25;146605;627;46020;-70
2023/02/16 05:43:56;;;;;;;;;48.50;36.00;;;;;2.38;75.96;102572.03;146604;624;47014;-73
2023/02/16 05:47:00;;;;;;;;;49.50;37.00;;;;;2.41;76.28;102585.19;146608;646;46010;-71
2023/02/16 05:50:02;;;;;;;;;40.00;34.75;;;;;2.45;76.16;102579.66;146605;591;46034;-73
2023/02/16 05:53:05;;;;;;;;;46.25;38.50;;;;;2.50;75.19;102580.19;146606;618;46020;-74
2023/02/16 05:56:02;;;;;;;;;38.75;33.25;;;;;2.56;75.38;102578.31;146603;583;46017;-73
2023/02/16 05:59:09;;;;;;;;;33.75;30.25;;;;;2.02;77.03;102430.56;146605;570;46020;-74
2023/02/16 06:02:14;;;;;;;;;44.00;32.25;;;;;3.48;77.19;102580.81;146604;576;46017;-73
2023/02/16 06:05:10;;;;;;;;;32.00;28.75;;;;;4.19;75.70;102571.34;146606;626;46020;-74
2023/02/16 06:08:26;;;;;;;;;38.00;32.25;;;;;5.10;73.09;102573.97;146605;573;45016;-73
2023/02/16 06:11:44;;;;;;;;;52.75;40.25;;;;;6.14;70.21;102563.91;146606;615;45021;-74
2023/02/16 06:14:59;;;;;;;;;;;;;;;;;;;;;
2023/02/16 06:18:18;;;;;;;;;48.25;36.00;;;;;7.83;64.31;102561.84;146606;712;46011;-75
2023/02/16 06:21:38;;;;;;;;;41.25;34.50;;;;;7.00;62.47;102288.47;146606;627;46012;-74
2023/02/16 06:24:44;;;;;;;;;33.00;30.25;;;;;9.28;59.87;102554.84;146608;577;46020;-75
2023/02/16 06:27:45;;;;;;;;;36.25;29.50;;;;;9.73;56.42;102555.25;146606;597;46012;-72
2023/02/16 06:30:41;;;;;;;;;32.00;27.25;;;;;9.95;55.74;102563.13;146604;661;46020;-69
2023/02/16 06:33:36;;;;;;;;;32.75;29.00;;;;;10.22;55.68;102561.91;146604;614;46017;-72
2023/02/16 06:36:56;;;;;;;;;29.00;28.00;;;;;10.69;57.41;102564.88;146605;605;46020;-72
2023/02/16 06:40:00;;;;;;;;;45.25;36.25;;;;;11.30;55.22;102564.50;146602;782;46017;-73
2023/02/16 06:43:12;;;;;;;;;;;;;;;;;;;;;
2023/02/16 06:46:19;;;;;;;;;50.75;43.00;;;;;12.04;51.63;102570.16;146606;616;46015;-72
2023/02/16 06:49:21;;;;;;;;;57.00;45.00;;;;;12.06;50.67;102568.59;146607;668;46021;-71
2023/02/16 06:52:23;;;;;;;;;51.25;40.50;;;;;11.80;49.36;102567.47;146603;577;46016;-72
2023/02/16 06:55:34;;;;;;;;;50.25;39.25;;;;;11.45;50.28;102559.59;146608;587;46010;-71
2023/02/16 06:58:36;;;;;;;;;48.75;38.50;;;;;11.08;51.42;102550.66;146601;572;47012;-71
2023/02/16 07:01:34;;;;;;;;;56.00;44.25;;;;;10.87;51.58;102555.03;146607;603;46031;-72
2023/02/16 07:04:43;;;;;;;;;52.75;41.75;;;;;10.75;52.34;102542.03;146607;601;46012;-72
2023/02/16 07:07:39;;;;;;;;;52.00;42.75;;;;;10.70;52.98;102547.63;146609;606;46010;-71
2023/02/16 07:10:37;;;;;;;;;54.00;42.75;;;;;10.72;52.58;102559.03;146605;622;46012;-72
2023/02/16 07:13:55;;;;;;;;;53.00;42.25;;;;;10.75;53.23;102551.50;146607;628;46010;-71
2023/02/16 07:17:03;;;;;;;;;66.25;52.25;;;;;9.14;53.41;102248.31;146603;620;46017;-71
2023/02/16 07:20:04;;;;;;;;;57.00;44.50;;;;;10.92;53.33;102550.22;146604;577;46010;-74
2023/02/16 07:23:11;;;;;;;;;57.75;46.25;;;;;11.04;52.60;102554.69;146604;612;47012;-71
2023/02/16 07:26:08;;;;;;;;;50.25;41.00;;;;;11.17;51.49;102546.16;146605;628;46010;-72
2023/02/16 07:29:14;;;;;;;;;57.50;43.50;;;;;11.25;51.79;102550.28;146605;629;46012;-72
2023/02/16 07:32:18;;;;;;;;;53.50;40.75;;;;;11.25;51.48;102554.56;146608;602;46012;-71
2023/02/16 07:35:23;;;;;;;;;53.75;42.25;;;;;11.26;51.33;102538.19;146597;617;49915;-70
2023/02/16 07:38:30;;;;;;;;;53.50;41.25;;;;;11.31;51.50;102550.75;146606;579;46020;-71
2023/02/16 07:41:39;;;;;;;;;53.25;42.00;;;;;11.37;51.32;102555.53;146605;620;46016;-71
2023/02/16 07:44:37;;;;;;;;;54.00;43.25;;;;;11.35;50.85;102564.88;146605;563;46020;-71
2023/02/16 07:48:10;;;;;;;;;51.00;41.25;;;;;11.46;52.01;102565.69;146603;583;46019;-70
2023/02/16 07:51:11;;;;;;;;;40.75;35.25;;;;;11.62;49.82;102563.50;146607;585;46010;-71
2023/02/16 07:54:19;;;;;;;;;51.00;39.50;;;;;11.77;49.75;102553.34;146603;613;46017;-71
2023/02/16 07:57:13;;;;;;;;;51.50;40.75;;;;;11.91;50.12;102560.53;146606;587;46020;-71
2023/02/16 08:00:16;;;;;;;;;57.25;44.25;;;;;12.09;50.38;102560.09;146605;623;46016;-72
2023/02/16 08:03:29;;;;;;;;;53.25;43.00;;;;;10.79;51.58;102300.16;146607;741;46012;-72
2023/02/16 08:06:42;;;;;;;;;58.50;46.25;;;;;12.40;49.80;102556.38;146604;624;46915;-72
2023/02/16 08:10:00;;;;;;;;;55.50;43.00;;;;;12.50;50.06;102547.53;146606;597;46012;-71
2023/02/16 08:12:58;;;;;;;;;49.25;38.00;;;;;12.57;49.22;102554.06;146606;602;46012;-71
2023/02/16 08:16:02;;;;;;;;;50.25;41.00;;;;;12.53;49.32;102549.47;146604;570;46011;-70
2023/02/16 08:19:11;;;;;;;;;53.75;43.00;;;;;12.56;50.53;102554.88;146604;608;46016;-72
2023/02/16 08:22:24;;;;;;;;;49.50;40.50;;;;;12.66;48.80;102552.13;146606;570;46010;-73
2023/02/16 08:25:44;;;;;;;;;53.75;43.00;;;;;11.20;51.75;102278.97;146605;720;46012;-72
2023/02/16 08:28:52;;;;;;;;;56.00;44.00;;;;;12.77;50.12;102547.69;146605;577;46010;-71
2023/02/16 08:31:54;;;;;;;;;52.00;42.25;;;;;12.83;50.34;102548.13;146605;585;46012;-73
2023/02/16 08:34:58;;;;;;;;;52.00;41.50;;;;;12.95;49.64;102557.72;146605;572;46020;-72
2023/02/16 08:38:12;;;;;;;;;55.25;43.00;;;;;11.63;51.17;102295.09;146604;565;46014;-75
2023/02/16 08:41:05;;;;;;;;;50.25;40.25;;;;;13.19;49.29;102547.22;146606;636;46020;-72
2023/02/16 08:44:03;;;;;;;;;54.00;42.25;;;;;13.33;49.21;102556.94;146605;579;46014;-70
2023/02/16 08:47:38;;;;;;;;;59.75;48.00;;;;;12.09;51.36;102311.41;146604;587;46021;-70
2023/02/16 08:50:48;;;;;;;;;53.50;43.00;;;;;13.72;50.33;102560.44;146605;602;46012;-70
2023/02/16 08:54:17;;;;;;;;;58.75;47.00;;;;;13.95;48.38;102559.37;146608;576;46010;-71
2023/02/16 08:57:25;;;;;;;;;55.50;42.50;;;;;13.38;48.60;102445.19;146602;678;47012;-70
2023/02/16 09:00:42;;;;;;;;;55.25;41.75;;;;;14.04;48.91;102562.59;146608;572;46012;-70
2023/02/16 09:03:46;;;;;;;;;49.75;40.75;;;;;14.12;48.13;102557.91;146604;578;46016;-68
2023/02/16 09:06:59;;;;;;;;;;;;;;;;;;;;;
2023/02/16 09:10:12;;;;;;;;;52.00;42.50;;;;;14.51;49.60;102558.72;146606;575;46012;-70
2023/02/16 09:13:27;;;;;;;;;55.75;44.50;;;;;14.72;46.80;102559.19;146607;575;46010;-72
2023/02/16 09:16:34;;;;;;;;;48.75;38.00;;;;;14.87;47.06;102559.28;146603;678;46017;-71
2023/02/16 09:19:37;;;;;;;;;49.00;40.00;;;;;14.93;46.10;102554.44;146604;592;47020;-70
2023/02/16 09:22:29;;;;;;;;;49.25;40.00;;;;;14.91;45.44;102563.88;146605;690;46013;-71
2023/02/16 09:25:24;;;;;;;;;48.25;37.50;;;;;14.88;45.05;102561.06;146606;606;46012;-72
2023/02/16 09:28:44;;;;;;;;;47.00;36.25;;;;;13.36;46.16;102294.00;146603;565;46919;-70
2023/02/16 09:31:48;;;;;;;;;50.25;41.00;;;;;14.88;45.74;102564.56;146605;570;47020;-71
2023/02/16 09:34:55;;;;;;;;;;;;;;;;;;;;;
2023/02/16 09:38:14;;;;;;;;;;;;;;;;;;;;;
2023/02/16 09:42:14;;;;;;;;;38.75;31.25;;;;;15.09;45.01;102567.62;146604;586;46016;-71
2023/02/16 09:45:42;;;;;;;;;23.75;22.25;;;;;15.12;43.12;102552.16;146606;578;46012;-68
2023/02/16 09:48:44;;;;;;;;;42.75;33.00;;;;;15.18;44.70;102557.75;146604;609;46016;-71
2023/02/16 09:52:20;;;;;;;;;41.25;33.75;;;;;13.93;47.25;102310.66;146604;601;46010;-71
2023/02/16 09:55:21;;;;;;;;;41.50;33.50;;;;;15.47;43.44;102546.44;146603;563;46012;-71
2023/02/16 09:59:03;;;;;;;;;49.50;39.50;;;;;13.94;45.24;102269.81;146606;765;46020;-71
2023/02/16 10:02:40;;;;;;;;;32.00;30.00;;;;;15.50;46.97;102542.22;146604;576;46016;-71
2023/02/16 10:06:27;;;;;;;;;34.75;31.25;;;;;14.09;45.85;102273.38;146605;614;46020;-71
2023/02/16 10:09:25;;;;;;;;;48.75;40.00;;;;;15.66;42.43;102535.37;146604;564;46918;-70
2023/02/16 10:12:41;;;;;;;;;45.00;35.00;;;;;15.68;44.53;102530.28;146604;564;46020;-70
2023/02/16 10:15:39;;;;;;;;;36.75;29.00;;;;;15.72;42.28;102527.03;146603;566;46017;-72
2023/02/16 10:18:50;;;;;;;;;33.00;29.00;;;;;15.67;42.41;102537.22;146605;569;46012;-72
2023/02/16 10:21:46;;;;;;;;;34.25;30.50;;;;;15.52;41.70;102520.59;146604;590;46014;-72
2023/02/16 10:24:50;;;;;;;;;35.00;29.25;;;;;15.42;44.78;102527.00;146602;629;46020;-72
2023/02/16 10:27:51;;;;;;;;;35.00;28.50;;;;;15.42;43.48;102527.00;146603;577;46016;-70
2023/02/16 10:30:52;;;;;;;;;42.25;35.00;;;;;15.48;43.78;102518.59;146605;696;46021;-70
2023/02/16 10:34:16;;;;;;;;;34.25;30.50;;;;;15.47;43.81;102519.41;146603;602;46016;-71
2023/02/16 10:37:59;;;;;;;;;43.00;35.25;;;;;14.63;47.00;102366.31;146608;592;45021;-71
2023/02/16 10:41:36;;;;;;;;;49.75;38.50;;;;;14.16;47.71;102256.38;146602;578;46016;-71
2023/02/16 10:44:46;;;;;;;;;64.25;49.50;;;;;15.75;47.26;102510.63;146605;571;46011;-72
2023/02/16 10:47:44;;;;;;;;;51.75;38.00;;;;;15.73;44.54;102502.66;146603;609;46016;-71
2023/02/16 10:50:57;;;;;;;;;49.50;37.00;;;;;15.66;43.05;102510.94;146606;695;46020;-71
2023/02/16 10:54:08;;;;;;;;;40.75;34.00;;;;;15.44;43.66;102496.59;146602;591;46016;-71
2023/02/16 10:57:20;;;;;;;;;37.75;33.75;;;;;14.73;45.12;102386.94;146603;605;46020;-72
2023/02/16 11:00:45;;;;;;;;;47.00;36.75;;;;;15.25;46.05;102494.59;146602;706;47920;-73
2023/02/16 11:04:09;;;;;;;;;41.50;33.50;;;;;15.23;46.75;102485.78;146606;612;47010;-73
2023/02/16 11:07:38;;;;;;;;;47.00;37.25;;;;;15.24;45.26;102484.97;146604;625;46017;-72
2023/02/16 11:11:03;;;;;;;;;43.50;35.25;;;;;15.25;46.67;102476.31;146604;589;46020;-72
2023/02/16 11:14:29;;;;;;;;;42.75;32.75;;;;;15.20;46.28;102469.00;146603;636;46017;-73
2023/02/16 11:17:27;;;;;;;;;41.50;33.25;;;;;15.19;46.37;102455.03;146606;624;48010;-73
2023/02/16 11:20:53;;;;;;;;;48.50;39.00;;;;;15.34;47.58;102464.59;146603;566;46037;-72
2023/02/16 11:24:01;;;;;;;;;42.25;33.00;;;;;15.41;45.30;102454.59;146605;634;46020;-72
2023/02/16 11:27:36;;;;;;;;;39.25;31.00;;;;;15.46;46.59;102455.78;146605;593;46016;-72
2023/02/16 11:31:22;;;;;;;;;36.25;31.00;;;;;14.74;46.88;102301.69;146606;592;46021;-71
2023/02/16 11:35:01;;;;;;;;;37.00;31.50;;;;;15.53;47.92;102433.50;146606;594;46016;-73
2023/02/16 11:38:06;;;;;;;;;33.00;29.00;;;;;15.54;44.52;102434.41;146605;588;46010;-73
2023/02/16 11:41:07;;;;;;;;;37.75;31.75;;;;;15.51;44.20;102429.87;146603;652;46014;-74
2023/02/16 11:44:15;;;;;;;;;36.00;32.25;;;;;15.55;44.00;102428.38;146608;570;46011;-72
2023/02/16 11:47:38;;;;;;;;;37.00;32.00;;;;;14.65;46.22;102270.72;146608;571;45575;-72
2023/02/16 11:51:06;;;;;;;;;36.00;30.50;;;;;14.18;46.24;102176.53;146608;720;45021;-71
2023/02/16 11:54:25;;;;;;;;;24.75;22.00;;;;;15.73;43.82;102426.81;146606;738;47014;-73
2023/02/16 11:57:43;;;;;;;;;32.00;28.75;;;;;14.33;47.02;102161.78;146607;596;46021;-72
2023/02/16 12:00:44;;;;;;;;;27.75;24.50;;;;;15.88;39.66;102414.62;146605;564;46012;-72
2023/02/16 12:04:16;;;;;;;;;31.25;24.50;;;;;15.99;43.03;102415.25;146604;575;47010;-72
2023/02/16 12:08:03;;;;;;;;;28.00;25.00;;;;;16.10;43.67;102426.28;146603;582;46016;-72
2023/02/16 12:11:40;;;;;;;;;31.75;27.00;;;;;14.81;43.29;102157.62;146605;569;46020;-74
2023/02/16 12:15:16;;;;;;;;;28.00;23.75;;;;;16.20;43.55;102401.53;146626;613;45014;-72
2023/02/16 12:18:40;;;;;;;;;25.75;24.00;;;;;16.23;43.91;102394.78;146627;606;45020;-73
2023/02/16 12:22:17;;;;;;;;;28.50;25.50;;;;;14.71;43.49;102119.66;146626;565;45016;-72
2023/02/16 12:25:45;;;;;;;;;25.00;22.50;;;;;16.30;44.15;102389.06;146626;573;46010;-72
2023/02/16 12:29:02;;;;;;;;;29.75;27.00;;;;;16.29;42.53;102386.34;146626;604;45915;-72
2023/02/16 12:32:29;;;;;;;;;29.00;24.50;;;;;16.33;44.31;102386.59;146625;591;45020;-71
2023/02/16 12:35:57;;;;;;;;;25.50;22.50;;;;;16.46;42.07;102382.03;146626;569;46013;-72
2023/02/16 12:39:27;;;;;;;;;24.75;21.50;;;;;14.92;43.59;102106.91;146626;606;45020;-72
2023/02/16 12:43:18;;;;;;;;;26.25;22.00;;;;;15.62;37.56;102235.31;146624;614;47013;-72
2023/02/16 12:46:38;;;;;;;;;21.00;20.00;;;;;16.22;38.40;102366.78;146626;570;45020;-72
2023/02/16 12:49:57;;;;;;;;;24.25;21.25;;;;;14.65;42.57;102079.25;146626;581;45012;-73
2023/02/16 12:53:31;;;;;;;;;19.25;17.00;;;;;16.30;40.98;102362.88;146628;572;45020;-72
2023/02/16 12:56:59;;;;;;;;;24.75;22.00;;;;;16.36;42.50;102365.81;146625;593;45016;-73
2023/02/16 13:00:44;;;;;;;;;25.25;21.25;;;;;16.35;37.72;102360.50;146628;583;45010;-72
2023/02/16 13:04:17;;;;;;;;;27.00;24.75;;;;;16.33;41.82;102359.53;146626;581;46012;-73
2023/02/16 13:07:38;;;;;;;;;33.25;30.75;;;;;16.34;42.16;102353.47;146628;613;46010;-75
2023/02/16 13:11:27;;;;;;;;;24.25;23.25;;;;;16.17;43.03;102349.94;146624;569;45016;-73
2023/02/16 13:14:47;;;;;;;;;;;;;;;;;;;;;
2023/02/16 13:18:19;;;;;;;;;26.50;22.25;;;;;16.18;40.43;102354.34;146627;577;45016;-72
2023/02/16 13:22:02;;;;;;;;;25.25;23.25;;;;;14.59;40.46;102055.41;146626;602;45021;-72
2023/02/16 13:25:36;;;;;;;;;26.50;24.00;;;;;14.95;42.15;102116.59;146622;569;47012;-72
2023/02/16 13:29:03;;;;;;;;;28.25;25.75;;;;;16.32;38.57;102348.16;146627;579;45020;-73
2023/02/16 13:32:47;;;;;;;;;25.50;21.00;;;;;16.08;36.64;102325.91;146622;589;46012;-73
2023/02/16 13:36:23;;;;;;;;;27.50;24.50;;;;;16.01;38.40;102340.38;146628;605;45020;-74
2023/02/16 13:39:54;;;;;;;;;18.50;18.00;;;;;15.83;40.69;102335.00;146624;583;45917;-71
2023/02/16 13:43:26;;;;;;;;;15.75;15.75;;;;;14.25;37.43;102049.12;146630;567;45010;-72
2023/02/16 13:46:48;;;;;;;;;22.50;21.25;;;;;14.32;39.84;102072.12;146624;600;45915;-72
2023/02/16 13:50:10;;;;;;;;;25.50;23.75;;;;;15.96;38.09;102328.75;146625;670;45021;-73
2023/02/16 13:53:26;;;;;;;;;31.50;28.00;;;;;14.41;37.33;102058.72;146625;574;45016;-73
2023/02/16 13:56:47;;;;;;;;;26.75;19.00;;;;;14.36;39.63;102056.66;146627;590;45021;-72
2023/02/16 14:00:07;;;;;;;;;22.75;22.25;;;;;14.58;41.18;102064.97;146625;579;46014;-73
2023/02/16 14:03:54;;;;;;;;;12.50;10.25;;;;;14.85;42.12;102085.56;146626;571;46010;-72
2023/02/16 14:06:46;;;;;;;;;19.00;17.00;;;;;16.37;37.26;102322.22;146627;563;45012;-72
2023/02/16 14:09:54;;;;;;;;;20.50;18.50;;;;;16.22;36.06;102317.06;146627;596;46010;-73
2023/02/16 14:12:56;;;;;;;;;31.75;27.25;;;;;16.01;36.74;102335.13;146616;579;46014;-72
2023/02/16 14:16:29;;;;;;;;;29.75;27.50;;;;;15.80;36.18;102326.09;146612;575;46020;-72
2023/02/16 14:19:36;;;;;;;;;29.75;25.75;;;;;15.59;37.99;102326.66;146608;699;46017;-74
2023/02/16 14:23:02;;;;;;;;;17.75;17.75;;;;;15.29;36.08;102324.91;146613;617;46020;-73
2023/02/16 14:26:25;;;;;;;;;21.75;19.50;;;;;15.04;40.69;102323.47;146610;602;46016;-73
2023/02/16 14:29:31;;;;;;;;;21.50;16.25;;;;;14.91;40.47;102331.41;146615;605;46012;-72
2023/02/16 14:32:39;;;;;;;;;19.50;18.75;;;;;14.88;39.77;102332.13;146611;579;46012;-72
2023/02/16 14:36:25;;;;;;;;;28.75;24.75;;;;;14.84;41.15;102330.16;146607;593;46021;-75
2023/02/16 14:39:28;;;;;;;;;25.00;21.00;;;;;14.71;39.56;102325.03;146608;584;46018;-71
2023/02/16 14:42:59;;;;;;;;;24.00;20.50;;;;;14.57;41.82;102333.72;146613;591;46012;-72
2023/02/16 14:46:42;;;;;;;;;23.00;21.25;;;;;12.85;43.85;102055.44;146611;604;46012;-72
2023/02/16 14:50:40;;;;;;;;;;;;;;;;;;;;;
2023/02/16 14:54:19;;;;;;;;;20.25;19.00;;;;;14.36;43.27;102328.03;146610;582;46917;-72
2023/02/16 14:58:16;;;;;;;;;24.50;23.00;;;;;13.46;45.30;102185.13;146614;569;46020;-72
2023/02/16 15:01:17;;;;;;;;;20.50;18.25;;;;;14.23;44.44;102327.28;146610;662;47016;-71
2023/02/16 15:04:17;;;;;;;;;23.00;20.75;;;;;14.20;44.04;102318.37;146614;575;46011;-71
2023/02/16 15:07:20;;;;;;;;;25.75;21.00;;;;;14.19;44.05;102322.69;146611;669;46012;-71
2023/02/16 15:10:52;;;;;;;;;25.75;23.00;;;;;14.16;44.81;102325.13;146614;586;46020;-72
2023/02/16 15:13:53;;;;;;;;;23.00;19.25;;;;;14.14;44.73;102320.59;146605;572;46014;-71
2023/02/16 15:17:00;;;;;;;;;33.25;29.75;;;;;14.12;44.67;102320.53;146606;588;47010;-71
2023/02/16 15:20:13;;;;;;;;;33.25;29.25;;;;;14.07;45.68;102330.66;146603;611;46017;-71
2023/02/16 15:23:22;;;;;;;;;36.25;29.75;;;;;13.97;45.61;102322.16;146602;569;47010;-72
2023/02/16 15:26:26;;;;;;;;;26.25;21.50;;;;;13.81;46.24;102323.81;146602;592;48916;-71
2023/02/16 15:29:32;;;;;;;;;33.75;30.00;;;;;13.66;46.56;102311.50;146606;634;47010;-72
2023/02/16 15:32:34;;;;;;;;;31.75;29.25;;;;;13.56;46.59;102318.72;146600;580;47915;-71
2023/02/16 15:36:16;;;;;;;;;28.00;24.75;;;;;12.63;47.57;102167.66;146605;607;46020;-73
2023/02/16 15:39:35;;;;;;;;;24.75;20.75;;;;;13.44;48.13;102324.84;146603;605;46915;-73
2023/02/16 15:42:53;;;;;;;;;30.75;27.50;;;;;13.28;48.25;102317.75;146605;589;46010;-72
2023/02/16 15:45:58;;;;;;;;;30.00;29.00;;;;;13.13;49.45;102322.81;146603;592;46919;-74
2023/02/16 15:49:09;;;;;;;;;27.50;22.75;;;;;12.98;49.46;102321.78;146602;590;47010;-72
2023/02/16 15:52:45;;;;;;;;;33.75;30.25;;;;;11.16;49.80;102032.00;146605;624;46012;-72